sensor_id;sensor_type;location;lat;lon;timestamp;P1;durP1;ratioP1;P2;durP2;ratioP2
25717;SDS011;13574;52.040;5.692;2023-02-15T00:01:44;59.20;;;28.00;;
25717;SDS011;13574;52.040;5.692;2023-02-15T00:04:14;59.00;;;27.52;;
25717;SDS011;13574;52.040;5.692;2023-02-15T00:06:42;54.95;;;27.38;;
25717;SDS011;13574;52.040;5.692;2023-02-15T00:09:08;58.75;;;28.45;;
25717;SDS011;13574;52.040;5.692;2023-02-15T00:11:35;62.00;;;28.40;;
25717;SDS011;13574;52.040;5.692;2023-02-15T00:14:17;56.28;;;27.70;;
25717;SDS011;13574;52.040;5.692;2023-02-15T00:16:48;60.13;;;28.95;;
25717;SDS011;13574;52.040;5.692;2023-02-15T00:19:18;55.08;;;28.10;;
25717;SDS011;13574;52.040;5.692;2023-02-15T00:21:45;56.00;;;27.25;;
25717;SDS011;13574;52.040;5.692;2023-02-15T00:24:13;55.90;;;28.25;;
25717;SDS011;13574;52.040;5.692;2023-02-15T00:26:40;55.22;;;27.15;;
25717;SDS011;13574;52.040;5.692;2023-02-15T00:29:08;52.85;;;26.02;;
25717;SDS011;13574;52.040;5.692;2023-02-15T00:31:35;49.85;;;25.38;;
25717;SDS011;13574;52.040;5.692;2023-02-15T00:34:11;48.25;;;24.63;;
25717;SDS011;13574;52.040;5.692;2023-02-15T00:36:40;48.08;;;23.55;;
25717;SDS011;13574;52.040;5.692;2023-02-15T00:39:06;50.42;;;24.20;;
25717;SDS011;13574;52.040;5.692;2023-02-15T00:41:32;46.20;;;23.60;;
25717;SDS011;13574;52.040;5.692;2023-02-15T00:43:57;38.55;;;20.83;;
25717;SDS011;13574;52.040;5.692;2023-02-15T00:46:23;37.70;;;21.08;;
25717;SDS011;13574;52.040;5.692;2023-02-15T00:48:49;41.17;;;21.60;;
25717;SDS011;13574;52.040;5.692;2023-02-15T00:51:15;42.17;;;20.73;;
25717;SDS011;13574;52.040;5.692;2023-02-15T00:53:41;37.90;;;21.30;;
25717;SDS011;13574;52.040;5.692;2023-02-15T00:56:09;39.53;;;20.95;;
25717;SDS011;13574;52.040;5.692;2023-02-15T00:58:35;47.92;;;23.83;;
25717;SDS011;13574;52.040;5.692;2023-02-15T01:01:05;47.15;;;24.80;;
25717;SDS011;13574;52.040;5.692;2023-02-15T01:03:32;50.22;;;24.90;;
25717;SDS011;13574;52.040;5.692;2023-02-15T01:05:58;46.33;;;23.38;;
25717;SDS011;13574;52.040;5.692;2023-02-15T01:08:24;50.30;;;25.20;;
25717;SDS011;13574;52.040;5.692;2023-02-15T01:10:50;45.58;;;23.15;;
25717;SDS011;13574;52.040;5.692;2023-02-15T01:13:16;48.97;;;24.25;;
25717;SDS011;13574;52.040;5.692;2023-02-15T01:15:42;43.72;;;23.73;;
25717;SDS011;13574;52.040;5.692;2023-02-15T01:18:09;49.72;;;25.23;;
25717;SDS011;13574;52.040;5.692;2023-02-15T01:20:36;52.95;;;25.98;;
25717;SDS011;13574;52.040;5.692;2023-02-15T01:23:04;56.15;;;26.25;;
25717;SDS011;13574;52.040;5.692;2023-02-15T01:25:32;51.83;;;24.55;;
25717;SDS011;13574;52.040;5.692;2023-02-15T01:27:59;50.67;;;24.73;;
25717;SDS011;13574;52.040;5.692;2023-02-15T01:30:25;48.13;;;23.23;;
25717;SDS011;13574;52.040;5.692;2023-02-15T01:32:50;47.53;;;23.38;;
25717;SDS011;13574;52.040;5.692;2023-02-15T01:35:16;42.10;;;21.45;;
25717;SDS011;13574;52.040;5.692;2023-02-15T01:37:42;46.33;;;23.60;;
25717;SDS011;13574;52.040;5.692;2023-02-15T01:40:08;45.30;;;23.52;;
25717;SDS011;13574;52.040;5.692;2023-02-15T01:42:38;42.03;;;21.63;;
25717;SDS011;13574;52.040;5.692;2023-02-15T01:45:05;43.55;;;22.17;;
25717;SDS011;13574;52.040;5.692;2023-02-15T01:52:59;45.53;;;23.25;;
25717;SDS011;13574;52.040;5.692;2023-02-15T01:55:36;47.78;;;23.30;;
25717;SDS011;13574;52.040;5.692;2023-02-15T01:58:05;42.92;;;22.58;;
25717;SDS011;13574;52.040;5.692;2023-02-15T02:00:32;50.58;;;24.35;;
25717;SDS011;13574;52.040;5.692;2023-02-15T02:02:58;52.47;;;25.08;;
25717;SDS011;13574;52.040;5.692;2023-02-15T02:05:26;48.00;;;24.42;;
25717;SDS011;13574;52.040;5.692;2023-02-15T02:07:53;50.22;;;24.70;;
25717;SDS011;13574;52.040;5.692;2023-02-15T02:10:23;49.35;;;25.20;;
25717;SDS011;13574;52.040;5.692;2023-02-15T02:12:51;48.40;;;24.60;;
25717;SDS011;13574;52.040;5.692;2023-02-15T02:15:20;45.95;;;23.23;;
25717;SDS011;13574;52.040;5.692;2023-02-15T02:32:16;44.90;;;22.30;;
25717;SDS011;13574;52.040;5.692;2023-02-15T02:38:04;48.70;;;23.83;;
25717;SDS011;13574;52.040;5.692;2023-02-15T02:40:51;46.92;;;23.90;;
25717;SDS011;13574;52.040;5.692;2023-02-15T02:43:20;43.22;;;23.35;;
25717;SDS011;13574;52.040;5.692;2023-02-15T02:45:53;44.42;;;22.80;;
25717;SDS011;13574;52.040;5.692;2023-02-15T02:48:26;47.72;;;23.80;;
25717;SDS011;13574;52.040;5.692;2023-02-15T02:50:55;46.45;;;22.67;;
25717;SDS011;13574;52.040;5.692;2023-02-15T02:53:21;42.78;;;22.20;;
25717;SDS011;13574;52.040;5.692;2023-02-15T02:55:49;45.50;;;22.85;;
25717;SDS011;13574;52.040;5.692;2023-02-15T03:03:58;46.25;;;23.30;;
25717;SDS011;13574;52.040;5.692;2023-02-15T03:06:30;43.63;;;23.05;;
25717;SDS011;13574;52.040;5.692;2023-02-15T03:09:19;49.55;;;24.65;;
25717;SDS011;13574;52.040;5.692;2023-02-15T03:12:07;47.80;;;22.77;;
25717;SDS011;13574;52.040;5.692;2023-02-15T03:14:40;46.50;;;23.55;;
25717;SDS011;13574;52.040;5.692;2023-02-15T03:17:08;48.90;;;24.45;;
25717;SDS011;13574;52.040;5.692;2023-02-15T03:19:37;45.05;;;22.98;;
25717;SDS011;13574;52.040;5.692;2023-02-15T03:22:05;42.97;;;21.77;;
25717;SDS011;13574;52.040;5.692;2023-02-15T03:27:22;38.75;;;20.92;;
25717;SDS011;13574;52.040;5.692;2023-02-15T03:29:52;38.97;;;21.47;;
25717;SDS011;13574;52.040;5.692;2023-02-15T03:32:20;39.97;;;20.20;;
25717;SDS011;13574;52.040;5.692;2023-02-15T03:34:48;39.05;;;20.20;;
25717;SDS011;13574;52.040;5.692;2023-02-15T03:37:26;39.42;;;19.73;;
25717;SDS011;13574;52.040;5.692;2023-02-15T03:40:06;40.38;;;20.58;;
25717;SDS011;13574;52.040;5.692;2023-02-15T03:43:07;41.03;;;19.75;;
25717;SDS011;13574;52.040;5.692;2023-02-15T03:45:47;39.85;;;20.50;;
25717;SDS011;13574;52.040;5.692;2023-02-15T03:48:27;44.85;;;21.40;;
25717;SDS011;13574;52.040;5.692;2023-02-15T03:51:00;45.72;;;21.85;;
25717;SDS011;13574;52.040;5.692;2023-02-15T03:53:48;46.25;;;22.45;;
25717;SDS011;13574;52.040;5.692;2023-02-15T03:56:14;50.33;;;23.92;;
25717;SDS011;13574;52.040;5.692;2023-02-15T03:58:40;50.35;;;24.63;;
25717;SDS011;13574;52.040;5.692;2023-02-15T04:01:34;47.72;;;23.50;;
25717;SDS011;13574;52.040;5.692;2023-02-15T04:04:26;46.97;;;23.50;;
25717;SDS011;13574;52.040;5.692;2023-02-15T04:09:21;48.05;;;23.45;;
25717;SDS011;13574;52.040;5.692;2023-02-15T04:12:05;50.00;;;24.65;;
25717;SDS011;13574;52.040;5.692;2023-02-15T04:14:31;48.60;;;24.27;;
25717;SDS011;13574;52.040;5.692;2023-02-15T04:17:15;49.17;;;23.83;;
25717;SDS011;13574;52.040;5.692;2023-02-15T04:19:41;46.10;;;23.45;;
25717;SDS011;13574;52.040;5.692;2023-02-15T04:22:25;48.72;;;23.83;;
25717;SDS011;13574;52.040;5.692;2023-02-15T04:25:09;52.60;;;25.02;;
25717;SDS011;13574;52.040;5.692;2023-02-15T04:27:38;53.40;;;25.27;;
25717;SDS011;13574;52.040;5.692;2023-02-15T04:30:06;46.42;;;23.20;;
25717;SDS011;13574;52.040;5.692;2023-02-15T04:32:32;50.30;;;24.73;;
25717;SDS011;13574;52.040;5.692;2023-02-15T04:34:59;52.47;;;24.00;;
25717;SDS011;13574;52.040;5.692;2023-02-15T04:37:24;52.10;;;25.50;;
25717;SDS011;13574;52.040;5.692;2023-02-15T04:39:50;53.85;;;24.98;;
25717;SDS011;13574;52.040;5.692;2023-02-15T04:42:16;53.28;;;25.90;;
25717;SDS011;13574;52.040;5.692;2023-02-15T04:44:42;53.72;;;25.23;;
25717;SDS011;13574;52.040;5.692;2023-02-15T04:47:08;50.67;;;25.55;;
25717;SDS011;13574;52.040;5.692;2023-02-15T04:49:33;53.13;;;24.67;;
25717;SDS011;13574;52.040;5.692;2023-02-15T04:51:59;49.95;;;24.60;;
25717;SDS011;13574;52.040;5.692;2023-02-15T04:54:25;51.53;;;24.30;;
25717;SDS011;13574;52.040;5.692;2023-02-15T04:56:50;51.67;;;24.88;;
25717;SDS011;13574;52.040;5.692;2023-02-15T04:59:16;46.53;;;22.77;;
25717;SDS011;13574;52.040;5.692;2023-02-15T05:01:42;50.67;;;24.95;;
25717;SDS011;13574;52.040;5.692;2023-02-15T05:04:07;51.55;;;24.63;;
25717;SDS011;13574;52.040;5.692;2023-02-15T05:06:34;48.85;;;25.20;;
25717;SDS011;13574;52.040;5.692;2023-02-15T05:08:59;49.05;;;24.83;;
25717;SDS011;13574;52.040;5.692;2023-02-15T05:11:25;48.38;;;23.48;;
25717;SDS011;13574;52.040;5.692;2023-02-15T05:13:51;47.75;;;24.35;;
25717;SDS011;13574;52.040;5.692;2023-02-15T05:16:17;55.53;;;24.90;;
25717;SDS011;13574;52.040;5.692;2023-02-15T05:18:43;52.45;;;24.63;;
25717;SDS011;13574;52.040;5.692;2023-02-15T05:21:08;51.22;;;26.17;;
25717;SDS011;13574;52.040;5.692;2023-02-15T05:23:34;53.75;;;25.33;;
25717;SDS011;13574;52.040;5.692;2023-02-15T05:26:00;55.03;;;26.63;;
25717;SDS011;13574;52.040;5.692;2023-02-15T05:28:44;58.90;;;27.73;;
25717;SDS011;13574;52.040;5.692;2023-02-15T05:31:11;58.53;;;28.15;;
25717;SDS011;13574;52.040;5.692;2023-02-15T05:33:39;63.08;;;27.63;;
25717;SDS011;13574;52.040;5.692;2023-02-15T05:36:05;58.92;;;29.23;;
25717;SDS011;13574;52.040;5.692;2023-02-15T05:38:32;61.42;;;30.30;;
25717;SDS011;13574;52.040;5.692;2023-02-15T05:40:58;64.10;;;29.50;;
25717;SDS011;13574;52.040;5.692;2023-02-15T05:43:24;71.30;;;30.60;;
25717;SDS011;13574;52.040;5.692;2023-02-15T05:45:51;61.22;;;29.13;;
25717;SDS011;13574;52.040;5.692;2023-02-15T05:48:18;66.60;;;31.42;;
25717;SDS011;13574;52.040;5.692;2023-02-15T05:50:45;67.13;;;30.02;;
25717;SDS011;13574;52.040;5.692;2023-02-15T05:53:10;54.33;;;25.70;;
25717;SDS011;13574;52.040;5.692;2023-02-15T05:55:37;56.20;;;26.85;;
25717;SDS011;13574;52.040;5.692;2023-02-15T05:58:04;53.38;;;26.33;;
25717;SDS011;13574;52.040;5.692;2023-02-15T06:00:30;53.40;;;25.85;;
25717;SDS011;13574;52.040;5.692;2023-02-15T06:02:55;55.22;;;26.63;;
25717;SDS011;13574;52.040;5.692;2023-02-15T06:05:21;51.60;;;26.05;;
25717;SDS011;13574;52.040;5.692;2023-02-15T06:07:47;53.85;;;25.95;;
25717;SDS011;13574;52.040;5.692;2023-02-15T06:10:12;54.90;;;27.10;;
25717;SDS011;13574;52.040;5.692;2023-02-15T06:12:40;62.78;;;29.60;;
25717;SDS011;13574;52.040;5.692;2023-02-15T06:15:06;64.35;;;30.30;;
25717;SDS011;13574;52.040;5.692;2023-02-15T06:17:32;61.88;;;29.77;;
25717;SDS011;13574;52.040;5.692;2023-02-15T06:19:58;59.35;;;29.92;;
25717;SDS011;13574;52.040;5.692;2023-02-15T06:22:23;64.25;;;30.25;;
25717;SDS011;13574;52.040;5.692;2023-02-15T06:24:49;64.85;;;29.83;;
25717;SDS011;13574;52.040;5.692;2023-02-15T06:27:17;68.30;;;30.70;;
25717;SDS011;13574;52.040;5.692;2023-02-15T06:29:45;64.30;;;30.45;;
25717;SDS011;13574;52.040;5.692;2023-02-15T06:32:13;61.65;;;29.75;;
25717;SDS011;13574;52.040;5.692;2023-02-15T06:34:45;70.10;;;31.88;;
25717;SDS011;13574;52.040;5.692;2023-02-15T06:37:20;68.25;;;31.55;;
25717;SDS011;13574;52.040;5.692;2023-02-15T06:39:45;65.60;;;31.05;;
25717;SDS011;13574;52.040;5.692;2023-02-15T06:42:13;68.68;;;30.58;;
25717;SDS011;13574;52.040;5.692;2023-02-15T06:44:39;63.60;;;30.38;;
25717;SDS011;13574;52.040;5.692;2023-02-15T06:47:05;69.72;;;30.67;;
25717;SDS011;13574;52.040;5.692;2023-02-15T06:49:30;63.80;;;31.73;;
25717;SDS011;13574;52.040;5.692;2023-02-15T06:51:56;69.25;;;31.90;;
25717;SDS011;13574;52.040;5.692;2023-02-15T06:54:24;59.35;;;29.25;;
25717;SDS011;13574;52.040;5.692;2023-02-15T06:56:49;64.03;;;29.77;;
25717;SDS011;13574;52.040;5.692;2023-02-15T06:59:15;65.90;;;31.65;;
25717;SDS011;13574;52.040;5.692;2023-02-15T07:01:41;66.85;;;31.02;;
25717;SDS011;13574;52.040;5.692;2023-02-15T07:04:06;63.50;;;30.75;;
25717;SDS011;13574;52.040;5.692;2023-02-15T07:06:32;64.32;;;29.90;;
25717;SDS011;13574;52.040;5.692;2023-02-15T07:08:58;67.20;;;30.15;;
25717;SDS011;13574;52.040;5.692;2023-02-15T07:11:24;61.33;;;30.38;;
25717;SDS011;13574;52.040;5.692;2023-02-15T07:14:16;69.03;;;30.98;;
25717;SDS011;13574;52.040;5.692;2023-02-15T07:16:42;66.15;;;30.52;;
25717;SDS011;13574;52.040;5.692;2023-02-15T07:19:08;66.72;;;30.70;;
25717;SDS011;13574;52.040;5.692;2023-02-15T07:21:34;60.22;;;30.80;;
25717;SDS011;13574;52.040;5.692;2023-02-15T07:24:00;62.22;;;29.85;;
25717;SDS011;13574;52.040;5.692;2023-02-15T07:26:26;63.38;;;30.88;;
25717;SDS011;13574;52.040;5.692;2023-02-15T07:28:51;66.20;;;31.48;;
25717;SDS011;13574;52.040;5.692;2023-02-15T07:31:17;66.15;;;31.38;;
25717;SDS011;13574;52.040;5.692;2023-02-15T07:33:43;67.35;;;32.47;;
25717;SDS011;13574;52.040;5.692;2023-02-15T07:36:09;61.83;;;28.73;;
25717;SDS011;13574;52.040;5.692;2023-02-15T07:38:37;57.90;;;27.63;;
25717;SDS011;13574;52.040;5.692;2023-02-15T07:41:05;56.65;;;28.15;;
25717;SDS011;13574;52.040;5.692;2023-02-15T07:43:33;56.50;;;28.00;;
25717;SDS011;13574;52.040;5.692;2023-02-15T07:46:00;60.47;;;29.73;;
25717;SDS011;13574;52.040;5.692;2023-02-15T07:48:27;61.63;;;30.95;;
25717;SDS011;13574;52.040;5.692;2023-02-15T07:50:53;58.45;;;30.02;;
25717;SDS011;13574;52.040;5.692;2023-02-15T07:53:18;66.22;;;31.83;;
25717;SDS011;13574;52.040;5.692;2023-02-15T07:55:44;64.72;;;31.17;;
25717;SDS011;13574;52.040;5.692;2023-02-15T07:58:09;60.05;;;28.08;;
25717;SDS011;13574;52.040;5.692;2023-02-15T08:00:35;59.85;;;31.33;;
25717;SDS011;13574;52.040;5.692;2023-02-15T08:03:24;59.60;;;29.23;;
25717;SDS011;13574;52.040;5.692;2023-02-15T08:05:57;59.58;;;28.90;;
25717;SDS011;13574;52.040;5.692;2023-02-15T08:08:24;60.50;;;29.33;;
25717;SDS011;13574;52.040;5.692;2023-02-15T08:10:57;60.85;;;28.27;;
25717;SDS011;13574;52.040;5.692;2023-02-15T08:14:09;53.90;;;27.45;;
25717;SDS011;13574;52.040;5.692;2023-02-15T08:16:44;59.20;;;29.80;;
25717;SDS011;13574;52.040;5.692;2023-02-15T08:21:40;51.05;;;25.77;;
25717;SDS011;13574;52.040;5.692;2023-02-15T08:24:08;53.35;;;26.80;;
25717;SDS011;13574;52.040;5.692;2023-02-15T08:26:36;49.67;;;27.17;;
25717;SDS011;13574;52.040;5.692;2023-02-15T08:29:03;55.83;;;28.80;;
25717;SDS011;13574;52.040;5.692;2023-02-15T08:31:30;59.47;;;30.60;;
25717;SDS011;13574;52.040;5.692;2023-02-15T08:33:56;52.70;;;27.48;;
25717;SDS011;13574;52.040;5.692;2023-02-15T08:36:23;52.65;;;26.33;;
25717;SDS011;13574;52.040;5.692;2023-02-15T08:38:50;54.53;;;27.52;;
25717;SDS011;13574;52.040;5.692;2023-02-15T08:41:24;49.80;;;25.95;;
25717;SDS011;13574;52.040;5.692;2023-02-15T08:43:52;55.85;;;28.80;;
25717;SDS011;13574;52.040;5.692;2023-02-15T08:46:19;50.58;;;27.67;;
25717;SDS011;13574;52.040;5.692;2023-02-15T08:48:47;57.35;;;30.17;;
25717;SDS011;13574;52.040;5.692;2023-02-15T08:51:13;56.90;;;30.05;;
25717;SDS011;13574;52.040;5.692;2023-02-15T08:53:45;62.05;;;31.05;;
25717;SDS011;13574;52.040;5.692;2023-02-15T08:56:16;59.38;;;31.30;;
25717;SDS011;13574;52.040;5.692;2023-02-15T08:58:43;58.50;;;28.55;;
25717;SDS011;13574;52.040;5.692;2023-02-15T09:01:13;53.75;;;28.77;;
25717;SDS011;13574;52.040;5.692;2023-02-15T09:03:45;57.65;;;30.02;;
25717;SDS011;13574;52.040;5.692;2023-02-15T09:06:13;58.53;;;29.65;;
25717;SDS011;13574;52.040;5.692;2023-02-15T09:08:39;58.58;;;28.15;;
25717;SDS011;13574;52.040;5.692;2023-02-15T09:11:06;54.08;;;28.05;;
25717;SDS011;13574;52.040;5.692;2023-02-15T09:13:34;57.85;;;28.40;;
25717;SDS011;13574;52.040;5.692;2023-02-15T09:16:00;56.15;;;28.85;;
25717;SDS011;13574;52.040;5.692;2023-02-15T09:18:34;51.88;;;27.83;;
25717;SDS011;13574;52.040;5.692;2023-02-15T09:21:07;53.58;;;29.15;;
25717;SDS011;13574;52.040;5.692;2023-02-15T09:23:35;50.67;;;27.90;;
25717;SDS011;13574;52.040;5.692;2023-02-15T09:26:03;51.28;;;27.27;;
25717;SDS011;13574;52.040;5.692;2023-02-15T09:28:33;47.78;;;26.45;;
25717;SDS011;13574;52.040;5.692;2023-02-15T09:31:15;52.45;;;27.35;;
25717;SDS011;13574;52.040;5.692;2023-02-15T09:33:44;48.58;;;26.60;;
25717;SDS011;13574;52.040;5.692;2023-02-15T09:38:39;49.38;;;27.38;;
25717;SDS011;13574;52.040;5.692;2023-02-15T09:43:38;48.70;;;26.05;;
25717;SDS011;13574;52.040;5.692;2023-02-15T09:48:51;48.42;;;26.60;;
25717;SDS011;13574;52.040;5.692;2023-02-15T09:54:28;48.03;;;25.20;;
25717;SDS011;13574;52.040;5.692;2023-02-15T10:00:00;47.28;;;25.13;;
25717;SDS011;13574;52.040;5.692;2023-02-15T10:10:53;47.70;;;25.00;;
25717;SDS011;13574;52.040;5.692;2023-02-15T10:24:12;47.97;;;25.63;;
25717;SDS011;13574;52.040;5.692;2023-02-15T10:26:56;49.33;;;25.17;;
25717;SDS011;13574;52.040;5.692;2023-02-15T10:29:35;46.50;;;24.52;;
25717;SDS011;13574;52.040;5.692;2023-02-15T10:32:25;50.20;;;26.67;;
25717;SDS011;13574;52.040;5.692;2023-02-15T10:46:21;46.15;;;25.17;;
25717;SDS011;13574;52.040;5.692;2023-02-15T10:58:11;45.78;;;25.40;;
25717;SDS011;13574;52.040;5.692;2023-02-15T11:00:57;49.28;;;26.20;;
25717;SDS011;13574;52.040;5.692;2023-02-15T11:06:03;50.15;;;25.75;;
25717;SDS011;13574;52.040;5.692;2023-02-15T11:08:33;49.45;;;25.98;;
25717;SDS011;13574;52.040;5.692;2023-02-15T11:11:12;50.25;;;27.75;;
25717;SDS011;13574;52.040;5.692;2023-02-15T11:13:46;56.75;;;28.17;;
25717;SDS011;13574;52.040;5.692;2023-02-15T11:21:36;50.10;;;26.88;;
25717;SDS011;13574;52.040;5.692;2023-02-15T11:24:11;45.72;;;26.75;;
25717;SDS011;13574;52.040;5.692;2023-02-15T11:29:21;56.60;;;28.63;;
25717;SDS011;13574;52.040;5.692;2023-02-15T11:31:53;59.13;;;31.42;;
25717;SDS011;13574;52.040;5.692;2023-02-15T11:34:27;52.85;;;29.55;;
25717;SDS011;13574;52.040;5.692;2023-02-15T11:37:14;51.97;;;28.55;;
25717;SDS011;13574;52.040;5.692;2023-02-15T11:39:44;48.90;;;27.88;;
25717;SDS011;13574;52.040;5.692;2023-02-15T11:42:16;48.55;;;27.05;;
25717;SDS011;13574;52.040;5.692;2023-02-15T11:45:31;49.13;;;26.95;;
25717;SDS011;13574;52.040;5.692;2023-02-15T11:47:50;54.72;;;29.92;;
25717;SDS011;13574;52.040;5.692;2023-02-15T11:50:19;61.05;;;33.53;;
25717;SDS011;13574;52.040;5.692;2023-02-15T11:53:04;56.25;;;31.38;;
25717;SDS011;13574;52.040;5.692;2023-02-15T11:55:36;53.60;;;30.00;;
25717;SDS011;13574;52.040;5.692;2023-02-15T11:58:09;49.33;;;29.10;;
25717;SDS011;13574;52.040;5.692;2023-02-15T12:00:54;53.80;;;29.05;;
25717;SDS011;13574;52.040;5.692;2023-02-15T12:03:41;49.97;;;28.08;;
25717;SDS011;13574;52.040;5.692;2023-02-15T12:06:34;49.17;;;28.23;;
25717;SDS011;13574;52.040;5.692;2023-02-15T12:09:02;47.75;;;27.10;;
25717;SDS011;13574;52.040;5.692;2023-02-15T12:11:40;49.92;;;28.67;;
25717;SDS011;13574;52.040;5.692;2023-02-15T12:14:07;57.03;;;28.58;;
25717;SDS011;13574;52.040;5.692;2023-02-15T12:16:40;47.72;;;27.65;;
25717;SDS011;13574;52.040;5.692;2023-02-15T12:19:25;54.47;;;28.63;;
25717;SDS011;13574;52.040;5.692;2023-02-15T12:22:05;49.35;;;28.63;;
25717;SDS011;13574;52.040;5.692;2023-02-15T12:24:45;49.50;;;28.70;;
25717;SDS011;13574;52.040;5.692;2023-02-15T12:29:43;51.97;;;28.77;;
25717;SDS011;13574;52.040;5.692;2023-02-15T12:32:17;50.38;;;28.55;;
25717;SDS011;13574;52.040;5.692;2023-02-15T12:34:55;49.58;;;28.88;;
25717;SDS011;13574;52.040;5.692;2023-02-15T12:37:28;52.83;;;28.48;;
25717;SDS011;13574;52.040;5.692;2023-02-15T12:40:00;52.22;;;29.88;;
25717;SDS011;13574;52.040;5.692;2023-02-15T12:42:44;45.25;;;28.15;;
25717;SDS011;13574;52.040;5.692;2023-02-15T12:45:23;54.22;;;29.02;;
25717;SDS011;13574;52.040;5.692;2023-02-15T12:50:51;49.22;;;28.27;;
25717;SDS011;13574;52.040;5.692;2023-02-15T12:53:32;51.85;;;29.02;;
25717;SDS011;13574;52.040;5.692;2023-02-15T12:56:01;49.08;;;29.02;;
25717;SDS011;13574;52.040;5.692;2023-02-15T12:58:29;51.90;;;29.77;;
25717;SDS011;13574;52.040;5.692;2023-02-15T13:06:28;51.78;;;29.42;;
25717;SDS011;13574;52.040;5.692;2023-02-15T13:08:58;52.90;;;29.88;;
25717;SDS011;13574;52.040;5.692;2023-02-15T13:11:42;57.50;;;30.83;;
25717;SDS011;13574;52.040;5.692;2023-02-15T13:16:53;51.13;;;29.73;;
25717;SDS011;13574;52.040;5.692;2023-02-15T13:19:29;50.13;;;28.90;;
25717;SDS011;13574;52.040;5.692;2023-02-15T13:22:02;55.10;;;30.77;;
25717;SDS011;13574;52.040;5.692;2023-02-15T13:24:37;51.08;;;29.55;;
25717;SDS011;13574;52.040;5.692;2023-02-15T13:27:07;50.75;;;29.65;;
25717;SDS011;13574;52.040;5.692;2023-02-15T13:29:45;51.05;;;29.92;;
25717;SDS011;13574;52.040;5.692;2023-02-15T13:32:30;53.65;;;29.45;;
25717;SDS011;13574;52.040;5.692;2023-02-15T13:35:02;49.75;;;30.15;;
25717;SDS011;13574;52.040;5.692;2023-02-15T13:37:37;53.47;;;28.77;;
25717;SDS011;13574;52.040;5.692;2023-02-15T13:43:29;48.33;;;28.70;;
25717;SDS011;13574;52.040;5.692;2023-02-15T13:46:10;51.03;;;28.95;;
25717;SDS011;13574;52.040;5.692;2023-02-15T13:48:45;52.25;;;29.30;;
25717;SDS011;13574;52.040;5.692;2023-02-15T13:51:22;49.78;;;28.30;;
25717;SDS011;13574;52.040;5.692;2023-02-15T14:00:01;50.67;;;29.52;;
25717;SDS011;13574;52.040;5.692;2023-02-15T14:07:59;54.75;;;30.45;;
25717;SDS011;13574;52.040;5.692;2023-02-15T14:11:01;55.22;;;29.52;;
25717;SDS011;13574;52.040;5.692;2023-02-15T14:16:17;58.72;;;32.28;;
25717;SDS011;13574;52.040;5.692;2023-02-15T14:21:48;58.30;;;33.60;;
25717;SDS011;13574;52.040;5.692;2023-02-15T14:24:29;57.30;;;32.33;;
25717;SDS011;13574;52.040;5.692;2023-02-15T14:29:49;53.05;;;29.92;;
25717;SDS011;13574;52.040;5.692;2023-02-15T14:34:58;56.13;;;31.00;;
25717;SDS011;13574;52.040;5.692;2023-02-15T14:37:31;56.95;;;30.60;;
25717;SDS011;13574;52.040;5.692;2023-02-15T14:40:40;53.63;;;30.77;;
25717;SDS011;13574;52.040;5.692;2023-02-15T14:43:47;57.45;;;30.63;;
25717;SDS011;13574;52.040;5.692;2023-02-15T14:46:34;54.10;;;31.10;;
25717;SDS011;13574;52.040;5.692;2023-02-15T14:49:12;52.67;;;29.52;;
25717;SDS011;13574;52.040;5.692;2023-02-15T14:54:08;56.55;;;30.92;;
25717;SDS011;13574;52.040;5.692;2023-02-15T14:56:35;51.72;;;31.90;;
25717;SDS011;13574;52.040;5.692;2023-02-15T14:59:19;56.80;;;30.85;;
25717;SDS011;13574;52.040;5.692;2023-02-15T15:01:56;55.75;;;31.70;;
25717;SDS011;13574;52.040;5.692;2023-02-15T15:04:28;53.42;;;31.50;;
25717;SDS011;13574;52.040;5.692;2023-02-15T15:07:09;56.78;;;34.20;;
25717;SDS011;13574;52.040;5.692;2023-02-15T15:09:48;59.60;;;32.53;;
25717;SDS011;13574;52.040;5.692;2023-02-15T15:15:00;59.03;;;32.88;;
25717;SDS011;13574;52.040;5.692;2023-02-15T15:20:04;58.78;;;33.30;;
25717;SDS011;13574;52.040;5.692;2023-02-15T15:23:44;57.40;;;33.65;;
25717;SDS011;13574;52.040;5.692;2023-02-15T15:25:45;59.58;;;32.92;;
25717;SDS011;13574;52.040;5.692;2023-02-15T15:31:02;54.47;;;31.50;;
25717;SDS011;13574;52.040;5.692;2023-02-15T15:33:46;56.80;;;32.42;;
25717;SDS011;13574;52.040;5.692;2023-02-15T15:50:25;58.40;;;32.03;;
25717;SDS011;13574;52.040;5.692;2023-02-15T15:52:55;58.28;;;31.60;;
25717;SDS011;13574;52.040;5.692;2023-02-15T15:55:25;55.20;;;31.23;;
25717;SDS011;13574;52.040;5.692;2023-02-15T15:57:53;62.80;;;31.92;;
25717;SDS011;13574;52.040;5.692;2023-02-15T16:03:15;57.05;;;32.05;;
25717;SDS011;13574;52.040;5.692;2023-02-15T16:05:50;59.17;;;32.55;;
25717;SDS011;13574;52.040;5.692;2023-02-15T16:10:57;60.45;;;32.33;;
25717;SDS011;13574;52.040;5.692;2023-02-15T16:13:24;63.97;;;33.30;;
25717;SDS011;13574;52.040;5.692;2023-02-15T16:15:52;60.55;;;34.08;;
25717;SDS011;13574;52.040;5.692;2023-02-15T16:18:21;59.33;;;33.10;;
25717;SDS011;13574;52.040;5.692;2023-02-15T16:20:51;62.25;;;34.03;;
25717;SDS011;13574;52.040;5.692;2023-02-15T16:26:22;58.42;;;33.55;;
25717;SDS011;13574;52.040;5.692;2023-02-15T16:29:15;60.25;;;32.63;;
25717;SDS011;13574;52.040;5.692;2023-02-15T16:31:42;65.20;;;33.28;;
25717;SDS011;13574;52.040;5.692;2023-02-15T16:34:19;60.42;;;33.13;;
25717;SDS011;13574;52.040;5.692;2023-02-15T16:36:45;59.88;;;33.67;;
25717;SDS011;13574;52.040;5.692;2023-02-15T16:39:18;57.22;;;31.88;;
25717;SDS011;13574;52.040;5.692;2023-02-15T16:41:45;65.25;;;33.80;;
25717;SDS011;13574;52.040;5.692;2023-02-15T16:44:19;60.30;;;32.72;;
25717;SDS011;13574;52.040;5.692;2023-02-15T16:46:46;61.22;;;33.30;;
25717;SDS011;13574;52.040;5.692;2023-02-15T16:49:22;61.25;;;33.10;;
25717;SDS011;13574;52.040;5.692;2023-02-15T16:51:54;62.08;;;33.40;;
25717;SDS011;13574;52.040;5.692;2023-02-15T16:54:22;61.92;;;32.67;;
25717;SDS011;13574;52.040;5.692;2023-02-15T16:56:51;57.33;;;31.13;;
25717;SDS011;13574;52.040;5.692;2023-02-15T17:02:12;62.25;;;32.55;;
25717;SDS011;13574;52.040;5.692;2023-02-15T17:04:59;66.72;;;36.13;;
25717;SDS011;13574;52.040;5.692;2023-02-15T17:07:26;79.47;;;41.60;;
25717;SDS011;13574;52.040;5.692;2023-02-15T17:09:55;73.00;;;40.10;;
25717;SDS011;13574;52.040;5.692;2023-02-15T17:20:30;67.93;;;34.80;;
25717;SDS011;13574;52.040;5.692;2023-02-15T17:22:57;61.35;;;31.48;;
25717;SDS011;13574;52.040;5.692;2023-02-15T17:25:29;64.72;;;31.60;;
25717;SDS011;13574;52.040;5.692;2023-02-15T17:28:01;63.97;;;32.60;;
25717;SDS011;13574;52.040;5.692;2023-02-15T17:30:31;61.13;;;32.88;;
25717;SDS011;13574;52.040;5.692;2023-02-15T17:33:00;78.90;;;39.85;;
25717;SDS011;13574;52.040;5.692;2023-02-15T17:35:28;63.47;;;32.90;;
25717;SDS011;13574;52.040;5.692;2023-02-15T17:40:44;65.95;;;33.83;;
25717;SDS011;13574;52.040;5.692;2023-02-15T17:43:10;67.68;;;34.33;;
25717;SDS011;13574;52.040;5.692;2023-02-15T17:45:38;60.05;;;32.63;;
25717;SDS011;13574;52.040;5.692;2023-02-15T17:48:09;58.83;;;32.30;;
25717;SDS011;13574;52.040;5.692;2023-02-15T17:50:55;58.38;;;32.70;;
25717;SDS011;13574;52.040;5.692;2023-02-15T17:53:22;60.63;;;33.30;;